sensor_id;sensor_type;location;lat;lon;timestamp;P1;durP1;ratioP1;P2;durP2;ratioP2
69854;SDS011;57146;48.140;16.304;2022-08-20T00:00:13;3.70;;;1.50;;
69854;SDS011;57146;48.140;16.304;2022-08-20T00:02:48;4.10;;;1.10;;
69854;SDS011;57146;48.140;16.304;2022-08-20T00:05:25;4.20;;;1.30;;
69854;SDS011;57146;48.140;16.304;2022-08-20T00:07:55;3.55;;;1.08;;
69854;SDS011;57146;48.140;16.304;2022-08-20T00:10:24;3.30;;;1.20;;
69854;SDS011;57146;48.140;16.304;2022-08-20T00:12:52;2.97;;;0.90;;
69854;SDS011;57146;48.140;16.304;2022-08-20T00:15:22;3.88;;;1.10;;
69854;SDS011;57146;48.140;16.304;2022-08-20T00:17:51;3.10;;;1.23;;
69854;SDS011;57146;48.140;16.304;2022-08-20T00:20:20;3.33;;;1.05;;
69854;SDS011;57146;48.140;16.304;2022-08-20T00:22:49;3.28;;;1.10;;
69854;SDS011;57146;48.140;16.304;2022-08-20T00:25:16;3.27;;;1.00;;
69854;SDS011;57146;48.140;16.304;2022-08-20T00:27:44;3.08;;;1.08;;
69854;SDS011;57146;48.140;16.304;2022-08-20T00:30:11;3.70;;;1.08;;
69854;SDS011;57146;48.140;16.304;2022-08-20T00:32:43;4.20;;;1.17;;
69854;SDS011;57146;48.140;16.304;2022-08-20T00:35:16;3.25;;;1.02;;
69854;SDS011;57146;48.140;16.304;2022-08-20T00:37:44;3.33;;;0.90;;
69854;SDS011;57146;48.140;16.304;2022-08-20T00:40:13;3.28;;;1.10;;
69854;SDS011;57146;48.140;16.304;2022-08-20T00:42:49;3.67;;;1.00;;
69854;SDS011;57146;48.140;16.304;2022-08-20T00:45:19;3.30;;;1.00;;
69854;SDS011;57146;48.140;16.304;2022-08-20T00:47:46;3.95;;;0.98;;
69854;SDS011;57146;48.140;16.304;2022-08-20T00:50:19;2.70;;;1.00;;
69854;SDS011;57146;48.140;16.304;2022-08-20T00:52:49;3.88;;;1.00;;
69854;SDS011;57146;48.140;16.304;2022-08-20T00:55:22;2.88;;;1.00;;
69854;SDS011;57146;48.140;16.304;2022-08-20T00:57:58;3.58;;;1.10;;
69854;SDS011;57146;48.140;16.304;2022-08-20T01:00:29;2.50;;;0.90;;
69854;SDS011;57146;48.140;16.304;2022-08-20T01:03:03;2.70;;;0.63;;
69854;SDS011;57146;48.140;16.304;2022-08-20T01:05:35;2.72;;;0.90;;
69854;SDS011;57146;48.140;16.304;2022-08-20T01:08:03;3.00;;;0.90;;
69854;SDS011;57146;48.140;16.304;2022-08-20T01:10:34;3.58;;;0.90;;
69854;SDS011;57146;48.140;16.304;2022-08-20T01:13:04;3.10;;;1.10;;
69854;SDS011;57146;48.140;16.304;2022-08-20T01:15:37;3.17;;;1.00;;
69854;SDS011;57146;48.140;16.304;2022-08-20T01:18:10;2.78;;;0.90;;
69854;SDS011;57146;48.140;16.304;2022-08-20T01:20:43;2.70;;;0.95;;
69854;SDS011;57146;48.140;16.304;2022-08-20T01:23:17;2.80;;;1.00;;
69854;SDS011;57146;48.140;16.304;2022-08-20T01:25:51;2.83;;;0.98;;
69854;SDS011;57146;48.140;16.304;2022-08-20T01:28:22;3.03;;;1.07;;
69854;SDS011;57146;48.140;16.304;2022-08-20T01:30:52;3.15;;;1.10;;
69854;SDS011;57146;48.140;16.304;2022-08-20T01:33:20;3.25;;;0.90;;
69854;SDS011;57146;48.140;16.304;2022-08-20T01:35:49;2.92;;;0.85;;
69854;SDS011;57146;48.140;16.304;2022-08-20T01:38:16;2.65;;;0.93;;
69854;SDS011;57146;48.140;16.304;2022-08-20T01:41:03;3.13;;;1.03;;
69854;SDS011;57146;48.140;16.304;2022-08-20T01:43:41;3.13;;;0.90;;
69854;SDS011;57146;48.140;16.304;2022-08-20T01:46:09;3.05;;;0.77;;
69854;SDS011;57146;48.140;16.304;2022-08-20T01:48:37;2.40;;;0.60;;
69854;SDS011;57146;48.140;16.304;2022-08-20T01:51:13;3.10;;;0.52;;
69854;SDS011;57146;48.140;16.304;2022-08-20T01:53:44;2.70;;;0.60;;
69854;SDS011;57146;48.140;16.304;2022-08-20T01:56:15;2.33;;;0.50;;
69854;SDS011;57146;48.140;16.304;2022-08-20T01:58:50;2.78;;;0.68;;
69854;SDS011;57146;48.140;16.304;2022-08-20T02:01:24;2.78;;;0.40;;
69854;SDS011;57146;48.140;16.304;2022-08-20T02:04:12;2.60;;;0.60;;
69854;SDS011;57146;48.140;16.304;2022-08-20T02:06:47;2.33;;;0.40;;
69854;SDS011;57146;48.140;16.304;2022-08-20T02:09:27;2.70;;;0.38;;
69854;SDS011;57146;48.140;16.304;2022-08-20T02:11:56;1.73;;;0.30;;
69854;SDS011;57146;48.140;16.304;2022-08-20T02:14:24;2.08;;;0.40;;
69854;SDS011;57146;48.140;16.304;2022-08-20T02:16:53;2.42;;;0.30;;
69854;SDS011;57146;48.140;16.304;2022-08-20T02:19:22;1.80;;;0.20;;
69854;SDS011;57146;48.140;16.304;2022-08-20T02:21:54;1.80;;;0.22;;
69854;SDS011;57146;48.140;16.304;2022-08-20T02:24:24;2.83;;;0.32;;
69854;SDS011;57146;48.140;16.304;2022-08-20T02:26:51;1.40;;;0.20;;
69854;SDS011;57146;48.140;16.304;2022-08-20T02:29:19;1.30;;;0.10;;
69854;SDS011;57146;48.140;16.304;2022-08-20T02:31:47;2.40;;;0.20;;
69854;SDS011;57146;48.140;16.304;2022-08-20T02:34:34;1.73;;;0.10;;
69854;SDS011;57146;48.140;16.304;2022-08-20T02:37:01;1.45;;;0.10;;
69854;SDS011;57146;48.140;16.304;2022-08-20T02:39:31;2.65;;;0.13;;
69854;SDS011;57146;48.140;16.304;2022-08-20T02:41:59;1.85;;;0.10;;
69854;SDS011;57146;48.140;16.304;2022-08-20T02:44:26;1.77;;;0.10;;
69854;SDS011;57146;48.140;16.304;2022-08-20T02:46:53;1.25;;;0.10;;
69854;SDS011;57146;48.140;16.304;2022-08-20T02:49:20;2.35;;;0.10;;
69854;SDS011;57146;48.140;16.304;2022-08-20T02:51:47;1.20;;;0.03;;
69854;SDS011;57146;48.140;16.304;2022-08-20T02:54:14;2.22;;;0.10;;
69854;SDS011;57146;48.140;16.304;2022-08-20T02:56:41;1.10;;;0.00;;
69854;SDS011;57146;48.140;16.304;2022-08-20T02:59:08;1.40;;;0.10;;
69854;SDS011;57146;48.140;16.304;2022-08-20T03:01:44;1.20;;;0.10;;
69854;SDS011;57146;48.140;16.304;2022-08-20T03:04:24;1.15;;;0.10;;
69854;SDS011;57146;48.140;16.304;2022-08-20T03:06:51;1.33;;;0.00;;
69854;SDS011;57146;48.140;16.304;2022-08-20T03:09:18;1.10;;;0.00;;
69854;SDS011;57146;48.140;16.304;2022-08-20T03:11:45;1.42;;;0.00;;
69854;SDS011;57146;48.140;16.304;2022-08-20T03:14:12;0.93;;;0.00;;
69854;SDS011;57146;48.140;16.304;2022-08-20T03:16:38;1.92;;;0.00;;
69854;SDS011;57146;48.140;16.304;2022-08-20T03:19:05;0.82;;;0.00;;
69854;SDS011;57146;48.140;16.304;2022-08-20T03:21:33;0.90;;;0.00;;
69854;SDS011;57146;48.140;16.304;2022-08-20T03:24:00;1.20;;;0.00;;
69854;SDS011;57146;48.140;16.304;2022-08-20T03:26:27;2.17;;;0.10;;
69854;SDS011;57146;48.140;16.304;2022-08-20T03:28:54;1.50;;;0.10;;
69854;SDS011;57146;48.140;16.304;2022-08-20T03:31:21;1.65;;;0.20;;
69854;SDS011;57146;48.140;16.304;2022-08-20T03:33:48;1.17;;;0.00;;
69854;SDS011;57146;48.140;16.304;2022-08-20T03:36:20;0.70;;;0.00;;
69854;SDS011;57146;48.140;16.304;2022-08-20T03:38:57;0.82;;;0.00;;
69854;SDS011;57146;48.140;16.304;2022-08-20T03:41:26;1.90;;;0.00;;
69854;SDS011;57146;48.140;16.304;2022-08-20T03:43:53;0.47;;;0.00;;
69854;SDS011;57146;48.140;16.304;2022-08-20T03:46:20;1.13;;;0.10;;
69854;SDS011;57146;48.140;16.304;2022-08-20T03:48:53;0.80;;;0.00;;
69854;SDS011;57146;48.140;16.304;2022-08-20T03:51:29;0.85;;;0.00;;
69854;SDS011;57146;48.140;16.304;2022-08-20T03:54:17;1.42;;;0.00;;
69854;SDS011;57146;48.140;16.304;2022-08-20T03:56:44;1.77;;;0.00;;
69854;SDS011;57146;48.140;16.304;2022-08-20T03:59:11;0.87;;;0.00;;
69854;SDS011;57146;48.140;16.304;2022-08-20T04:01:38;0.80;;;0.00;;
69854;SDS011;57146;48.140;16.304;2022-08-20T04:04:12;0.98;;;0.00;;
69854;SDS011;57146;48.140;16.304;2022-08-20T04:06:40;1.48;;;0.00;;
69854;SDS011;57146;48.140;16.304;2022-08-20T04:09:08;1.10;;;0.00;;
69854;SDS011;57146;48.140;16.304;2022-08-20T04:11:38;1.10;;;0.00;;
69854;SDS011;57146;48.140;16.304;2022-08-20T04:14:07;0.98;;;0.00;;
69854;SDS011;57146;48.140;16.304;2022-08-20T04:16:37;0.80;;;0.00;;
69854;SDS011;57146;48.140;16.304;2022-08-20T04:19:04;1.33;;;0.00;;
69854;SDS011;57146;48.140;16.304;2022-08-20T04:21:33;1.85;;;0.00;;
69854;SDS011;57146;48.140;16.304;2022-08-20T04:24:02;1.00;;;0.00;;
69854;SDS011;57146;48.140;16.304;2022-08-20T04:26:30;0.90;;;0.00;;
69854;SDS011;57146;48.140;16.304;2022-08-20T04:28:58;1.48;;;0.10;;
69854;SDS011;57146;48.140;16.304;2022-08-20T04:31:24;1.23;;;0.00;;
69854;SDS011;57146;48.140;16.304;2022-08-20T04:33:51;1.30;;;0.00;;
69854;SDS011;57146;48.140;16.304;2022-08-20T04:36:19;1.27;;;0.00;;
69854;SDS011;57146;48.140;16.304;2022-08-20T04:38:46;1.05;;;0.00;;
69854;SDS011;57146;48.140;16.304;2022-08-20T04:41:16;1.15;;;0.00;;
69854;SDS011;57146;48.140;16.304;2022-08-20T04:43:50;1.10;;;0.00;;
69854;SDS011;57146;48.140;16.304;2022-08-20T04:46:18;1.42;;;0.00;;
69854;SDS011;57146;48.140;16.304;2022-08-20T04:48:45;1.53;;;0.10;;
69854;SDS011;57146;48.140;16.304;2022-08-20T04:51:14;2.28;;;0.10;;
69854;SDS011;57146;48.140;16.304;2022-08-20T04:53:41;1.55;;;0.00;;
69854;SDS011;57146;48.140;16.304;2022-08-20T04:56:08;1.38;;;0.00;;
69854;SDS011;57146;48.140;16.304;2022-08-20T04:58:36;1.55;;;0.10;;
69854;SDS011;57146;48.140;16.304;2022-08-20T05:01:06;0.73;;;0.00;;
69854;SDS011;57146;48.140;16.304;2022-08-20T05:03:36;2.25;;;0.10;;
69854;SDS011;57146;48.140;16.304;2022-08-20T05:06:06;1.38;;;0.00;;
69854;SDS011;57146;48.140;16.304;2022-08-20T05:08:34;2.03;;;0.00;;
69854;SDS011;57146;48.140;16.304;2022-08-20T05:11:02;1.10;;;0.00;;
69854;SDS011;57146;48.140;16.304;2022-08-20T05:13:50;1.30;;;0.10;;
69854;SDS011;57146;48.140;16.304;2022-08-20T05:16:17;1.60;;;0.00;;
69854;SDS011;57146;48.140;16.304;2022-08-20T05:18:44;0.95;;;0.00;;
69854;SDS011;57146;48.140;16.304;2022-08-20T05:21:17;1.42;;;0.00;;
69854;SDS011;57146;48.140;16.304;2022-08-20T05:23:45;1.00;;;0.00;;
69854;SDS011;57146;48.140;16.304;2022-08-20T05:26:12;1.00;;;0.00;;
69854;SDS011;57146;48.140;16.304;2022-08-20T05:28:39;0.70;;;0.00;;
69854;SDS011;57146;48.140;16.304;2022-08-20T05:31:25;0.90;;;0.00;;
69854;SDS011;57146;48.140;16.304;2022-08-20T05:34:03;2.58;;;0.00;;
69854;SDS011;57146;48.140;16.304;2022-08-20T05:36:31;0.98;;;0.00;;
69854;SDS011;57146;48.140;16.304;2022-08-20T05:38:58;1.30;;;0.10;;
69854;SDS011;57146;48.140;16.304;2022-08-20T05:41:25;0.98;;;0.00;;
69854;SDS011;57146;48.140;16.304;2022-08-20T05:43:58;1.65;;;0.00;;
69854;SDS011;57146;48.140;16.304;2022-08-20T05:46:25;0.57;;;0.00;;
69854;SDS011;57146;48.140;16.304;2022-08-20T05:48:52;0.60;;;0.00;;
69854;SDS011;57146;48.140;16.304;2022-08-20T05:51:19;0.70;;;0.00;;
69854;SDS011;57146;48.140;16.304;2022-08-20T05:53:46;1.17;;;0.00;;
69854;SDS011;57146;48.140;16.304;2022-08-20T05:56:13;0.93;;;0.00;;
69854;SDS011;57146;48.140;16.304;2022-08-20T05:58:40;0.57;;;0.00;;
69854;SDS011;57146;48.140;16.304;2022-08-20T06:01:07;1.10;;;0.00;;
69854;SDS011;57146;48.140;16.304;2022-08-20T06:03:34;1.47;;;0.00;;
69854;SDS011;57146;48.140;16.304;2022-08-20T06:06:01;0.65;;;0.00;;
69854;SDS011;57146;48.140;16.304;2022-08-20T06:08:43;0.68;;;0.00;;
69854;SDS011;57146;48.140;16.304;2022-08-20T06:11:10;0.90;;;0.00;;
69854;SDS011;57146;48.140;16.304;2022-08-20T06:13:37;0.77;;;0.00;;
69854;SDS011;57146;48.140;16.304;2022-08-20T06:16:04;1.00;;;0.00;;
69854;SDS011;57146;48.140;16.304;2022-08-20T06:18:33;1.77;;;0.00;;
69854;SDS011;57146;48.140;16.304;2022-08-20T06:21:00;0.68;;;0.00;;
69854;SDS011;57146;48.140;16.304;2022-08-20T06:23:27;0.88;;;0.00;;
69854;SDS011;57146;48.140;16.304;2022-08-20T06:26:14;0.90;;;0.00;;
69854;SDS011;57146;48.140;16.304;2022-08-20T06:28:49;0.63;;;0.00;;
69854;SDS011;57146;48.140;16.304;2022-08-20T06:31:19;1.33;;;0.00;;
69854;SDS011;57146;48.140;16.304;2022-08-20T06:33:46;0.68;;;0.00;;
69854;SDS011;57146;48.140;16.304;2022-08-20T06:36:13;1.40;;;0.00;;
69854;SDS011;57146;48.140;16.304;2022-08-20T06:38:44;1.48;;;0.00;;
69854;SDS011;57146;48.140;16.304;2022-08-20T06:41:11;1.03;;;0.00;;
69854;SDS011;57146;48.140;16.304;2022-08-20T06:43:39;0.90;;;0.00;;
69854;SDS011;57146;48.140;16.304;2022-08-20T06:46:06;0.60;;;0.00;;
69854;SDS011;57146;48.140;16.304;2022-08-20T06:48:33;1.15;;;0.00;;
69854;SDS011;57146;48.140;16.304;2022-08-20T06:51:00;1.02;;;0.00;;
69854;SDS011;57146;48.140;16.304;2022-08-20T06:53:27;0.90;;;0.00;;
69854;SDS011;57146;48.140;16.304;2022-08-20T06:55:54;0.57;;;0.00;;
69854;SDS011;57146;48.140;16.304;2022-08-20T06:58:23;1.00;;;0.00;;
69854;SDS011;57146;48.140;16.304;2022-08-20T07:01:06;1.65;;;0.00;;
69854;SDS011;57146;48.140;16.304;2022-08-20T07:03:37;1.02;;;0.00;;
69854;SDS011;57146;48.140;16.304;2022-08-20T07:06:13;0.97;;;0.00;;
69854;SDS011;57146;48.140;16.304;2022-08-20T07:08:41;1.00;;;0.00;;
69854;SDS011;57146;48.140;16.304;2022-08-20T07:11:09;0.98;;;0.00;;
69854;SDS011;57146;48.140;16.304;2022-08-20T07:13:36;0.70;;;0.00;;
69854;SDS011;57146;48.140;16.304;2022-08-20T07:16:03;1.10;;;0.00;;
69854;SDS011;57146;48.140;16.304;2022-08-20T07:18:31;0.50;;;0.00;;
69854;SDS011;57146;48.140;16.304;2022-08-20T07:20:58;0.88;;;0.00;;
69854;SDS011;57146;48.140;16.304;2022-08-20T07:23:25;1.88;;;0.00;;
69854;SDS011;57146;48.140;16.304;2022-08-20T07:25:52;3.05;;;0.00;;
69854;SDS011;57146;48.140;16.304;2022-08-20T07:28:21;0.73;;;0.00;;
69854;SDS011;57146;48.140;16.304;2022-08-20T07:30:50;0.90;;;0.00;;
69854;SDS011;57146;48.140;16.304;2022-08-20T07:33:23;2.17;;;0.00;;
69854;SDS011;57146;48.140;16.304;2022-08-20T07:35:58;1.25;;;0.00;;
69854;SDS011;57146;48.140;16.304;2022-08-20T07:38:26;0.80;;;0.00;;
69854;SDS011;57146;48.140;16.304;2022-08-20T07:40:57;1.17;;;0.00;;
69854;SDS011;57146;48.140;16.304;2022-08-20T07:43:29;2.70;;;0.00;;
69854;SDS011;57146;48.140;16.304;2022-08-20T07:45:57;0.52;;;0.00;;
69854;SDS011;57146;48.140;16.304;2022-08-20T07:48:25;0.73;;;0.00;;
69854;SDS011;57146;48.140;16.304;2022-08-20T07:50:57;1.10;;;0.00;;
69854;SDS011;57146;48.140;16.304;2022-08-20T07:53:26;1.30;;;0.00;;
69854;SDS011;57146;48.140;16.304;2022-08-20T07:55:59;1.40;;;0.00;;
69854;SDS011;57146;48.140;16.304;2022-08-20T07:58:27;0.85;;;0.00;;
69854;SDS011;57146;48.140;16.304;2022-08-20T08:00:59;2.67;;;0.00;;
69854;SDS011;57146;48.140;16.304;2022-08-20T08:03:26;1.58;;;0.00;;
69854;SDS011;57146;48.140;16.304;2022-08-20T08:06:13;1.63;;;0.00;;
69854;SDS011;57146;48.140;16.304;2022-08-20T08:08:43;0.87;;;0.00;;
69854;SDS011;57146;48.140;16.304;2022-08-20T08:11:10;1.73;;;0.00;;
69854;SDS011;57146;48.140;16.304;2022-08-20T08:13:39;2.05;;;0.10;;
69854;SDS011;57146;48.140;16.304;2022-08-20T08:16:07;0.55;;;0.00;;
69854;SDS011;57146;48.140;16.304;2022-08-20T08:18:46;3.10;;;0.00;;
69854;SDS011;57146;48.140;16.304;2022-08-20T08:21:17;4.63;;;0.00;;
69854;SDS011;57146;48.140;16.304;2022-08-20T08:23:44;2.53;;;0.00;;
69854;SDS011;57146;48.140;16.304;2022-08-20T08:26:11;0.70;;;0.00;;
69854;SDS011;57146;48.140;16.304;2022-08-20T08:28:44;0.80;;;0.00;;
69854;SDS011;57146;48.140;16.304;2022-08-20T08:31:11;1.52;;;0.00;;
69854;SDS011;57146;48.140;16.304;2022-08-20T08:33:39;0.63;;;0.00;;
69854;SDS011;57146;48.140;16.304;2022-08-20T08:36:08;0.70;;;0.00;;
69854;SDS011;57146;48.140;16.304;2022-08-20T08:38:38;0.47;;;0.00;;
69854;SDS011;57146;48.140;16.304;2022-08-20T08:41:20;0.45;;;0.00;;
69854;SDS011;57146;48.140;16.304;2022-08-20T08:44:06;1.25;;;0.00;;
69854;SDS011;57146;48.140;16.304;2022-08-20T08:46:39;0.70;;;0.00;;
69854;SDS011;57146;48.140;16.304;2022-08-20T08:49:11;0.70;;;0.00;;
69854;SDS011;57146;48.140;16.304;2022-08-20T08:51:46;0.55;;;0.00;;
69854;SDS011;57146;48.140;16.304;2022-08-20T08:54:18;0.43;;;0.00;;
69854;SDS011;57146;48.140;16.304;2022-08-20T08:56:48;1.30;;;0.00;;
69854;SDS011;57146;48.140;16.304;2022-08-20T08:59:16;0.63;;;0.00;;
69854;SDS011;57146;48.140;16.304;2022-08-20T09:02:02;2.05;;;0.00;;
69854;SDS011;57146;48.140;16.304;2022-08-20T09:04:33;1.25;;;0.00;;
69854;SDS011;57146;48.140;16.304;2022-08-20T09:07:03;0.93;;;0.00;;
69854;SDS011;57146;48.140;16.304;2022-08-20T09:09:35;0.80;;;0.00;;
69854;SDS011;57146;48.140;16.304;2022-08-20T09:12:06;0.60;;;0.00;;
69854;SDS011;57146;48.140;16.304;2022-08-20T09:14:35;0.75;;;0.00;;
69854;SDS011;57146;48.140;16.304;2022-08-20T09:17:03;0.70;;;0.00;;
69854;SDS011;57146;48.140;16.304;2022-08-20T09:19:31;0.90;;;0.00;;
69854;SDS011;57146;48.140;16.304;2022-08-20T09:21:58;1.65;;;0.15;;
69854;SDS011;57146;48.140;16.304;2022-08-20T09:24:25;1.27;;;0.00;;
69854;SDS011;57146;48.140;16.304;2022-08-20T09:26:52;0.85;;;0.00;;
69854;SDS011;57146;48.140;16.304;2022-08-20T09:29:18;0.52;;;0.00;;
69854;SDS011;57146;48.140;16.304;2022-08-20T09:31:46;1.30;;;0.00;;
69854;SDS011;57146;48.140;16.304;2022-08-20T09:34:14;1.80;;;0.00;;
69854;SDS011;57146;48.140;16.304;2022-08-20T09:36:40;0.80;;;0.00;;
69854;SDS011;57146;48.140;16.304;2022-08-20T09:39:07;0.93;;;0.00;;
69854;SDS011;57146;48.140;16.304;2022-08-20T09:41:34;0.90;;;0.00;;
69854;SDS011;57146;48.140;16.304;2022-08-20T09:44:01;0.95;;;0.00;;
69854;SDS011;57146;48.140;16.304;2022-08-20T09:46:28;0.80;;;0.00;;
69854;SDS011;57146;48.140;16.304;2022-08-20T09:48:55;0.70;;;0.00;;
69854;SDS011;57146;48.140;16.304;2022-08-20T09:51:22;1.73;;;0.00;;
69854;SDS011;57146;48.140;16.304;2022-08-20T09:53:49;1.65;;;0.00;;
69854;SDS011;57146;48.140;16.304;2022-08-20T09:56:16;0.60;;;0.00;;
69854;SDS011;57146;48.140;16.304;2022-08-20T09:58:46;1.10;;;0.10;;
69854;SDS011;57146;48.140;16.304;2022-08-20T10:01:17;1.10;;;0.00;;
69854;SDS011;57146;48.140;16.304;2022-08-20T10:03:46;1.58;;;0.00;;
69854;SDS011;57146;48.140;16.304;2022-08-20T10:06:15;0.68;;;0.00;;
69854;SDS011;57146;48.140;16.304;2022-08-20T10:08:44;2.42;;;0.00;;
69854;SDS011;57146;48.140;16.304;2022-08-20T10:11:11;1.00;;;0.10;;
69854;SDS011;57146;48.140;16.304;2022-08-20T10:13:38;1.40;;;0.00;;
69854;SDS011;57146;48.140;16.304;2022-08-20T10:16:05;1.05;;;0.00;;
69854;SDS011;57146;48.140;16.304;2022-08-20T10:18:33;1.00;;;0.10;;
69854;SDS011;57146;48.140;16.304;2022-08-20T10:21:00;1.83;;;0.10;;
69854;SDS011;57146;48.140;16.304;2022-08-20T10:23:27;1.20;;;0.00;;
69854;SDS011;57146;48.140;16.304;2022-08-20T10:25:54;1.57;;;0.10;;
69854;SDS011;57146;48.140;16.304;2022-08-20T10:28:21;1.88;;;0.10;;
69854;SDS011;57146;48.140;16.304;2022-08-20T10:30:48;1.50;;;0.10;;
69854;SDS011;57146;48.140;16.304;2022-08-20T10:33:14;1.50;;;0.10;;
69854;SDS011;57146;48.140;16.304;2022-08-20T10:35:41;3.75;;;0.13;;
69854;SDS011;57146;48.140;16.304;2022-08-20T10:38:08;1.63;;;0.10;;
69854;SDS011;57146;48.140;16.304;2022-08-20T10:40:35;3.92;;;0.20;;
69854;SDS011;57146;48.140;16.304;2022-08-20T10:43:02;1.50;;;0.15;;
69854;SDS011;57146;48.140;16.304;2022-08-20T10:45:29;1.20;;;0.00;;
69854;SDS011;57146;48.140;16.304;2022-08-20T10:47:59;1.10;;;0.10;;
69854;SDS011;57146;48.140;16.304;2022-08-20T10:50:27;1.13;;;0.10;;
69854;SDS011;57146;48.140;16.304;2022-08-20T10:52:56;1.40;;;0.10;;
69854;SDS011;57146;48.140;16.304;2022-08-20T10:55:23;1.02;;;0.00;;
69854;SDS011;57146;48.140;16.304;2022-08-20T10:57:50;1.15;;;0.10;;
69854;SDS011;57146;48.140;16.304;2022-08-20T11:00:17;1.15;;;0.10;;
69854;SDS011;57146;48.140;16.304;2022-08-20T11:02:45;1.43;;;0.10;;
69854;SDS011;57146;48.140;16.304;2022-08-20T11:05:12;1.48;;;0.10;;
69854;SDS011;57146;48.140;16.304;2022-08-20T11:07:40;1.83;;;0.10;;
69854;SDS011;57146;48.140;16.304;2022-08-20T11:10:23;1.20;;;0.00;;
69854;SDS011;57146;48.140;16.304;2022-08-20T11:12:51;1.30;;;0.00;;
69854;SDS011;57146;48.140;16.304;2022-08-20T11:15:18;1.53;;;0.00;;
69854;SDS011;57146;48.140;16.304;2022-08-20T11:17:46;1.00;;;0.00;;
69854;SDS011;57146;48.140;16.304;2022-08-20T11:20:13;1.00;;;0.00;;
69854;SDS011;57146;48.140;16.304;2022-08-20T11:22:42;2.45;;;0.10;;
69854;SDS011;57146;48.140;16.304;2022-08-20T11:25:09;1.60;;;0.08;;
69854;SDS011;57146;48.140;16.304;2022-08-20T11:27:38;1.10;;;0.00;;
69854;SDS011;57146;48.140;16.304;2022-08-20T11:30:08;2.53;;;0.00;;
69854;SDS011;57146;48.140;16.304;2022-08-20T11:32:39;1.10;;;0.03;;
69854;SDS011;57146;48.140;16.304;2022-08-20T11:35:05;1.10;;;0.00;;
69854;SDS011;57146;48.140;16.304;2022-08-20T11:37:54;1.30;;;0.08;;
69854;SDS011;57146;48.140;16.304;2022-08-20T11:40:22;1.37;;;0.10;;
69854;SDS011;57146;48.140;16.304;2022-08-20T11:42:50;1.50;;;0.00;;
69854;SDS011;57146;48.140;16.304;2022-08-20T11:45:37;1.40;;;0.10;;
69854;SDS011;57146;48.140;16.304;2022-08-20T11:48:04;1.48;;;0.10;;
69854;SDS011;57146;48.140;16.304;2022-08-20T11:50:31;1.35;;;0.13;;
69854;SDS011;57146;48.140;16.304;2022-08-20T11:52:58;1.90;;;0.30;;
69854;SDS011;57146;48.140;16.304;2022-08-20T11:55:27;1.70;;;0.30;;
69854;SDS011;57146;48.140;16.304;2022-08-20T11:57:56;1.50;;;0.20;;
69854;SDS011;57146;48.140;16.304;2022-08-20T12:00:26;1.33;;;0.03;;
69854;SDS011;57146;48.140;16.304;2022-08-20T12:03:02;2.00;;;0.05;;
69854;SDS011;57146;48.140;16.304;2022-08-20T12:05:35;1.70;;;0.20;;
69854;SDS011;57146;48.140;16.304;2022-08-20T12:08:03;2.00;;;0.30;;
69854;SDS011;57146;48.140;16.304;2022-08-20T12:10:31;1.63;;;0.20;;
69854;SDS011;57146;48.140;16.304;2022-08-20T12:12:58;1.60;;;0.13;;
69854;SDS011;57146;48.140;16.304;2022-08-20T12:15:28;1.98;;;0.20;;
69854;SDS011;57146;48.140;16.304;2022-08-20T12:17:55;1.60;;;0.20;;
69854;SDS011;57146;48.140;16.304;2022-08-20T12:20:22;1.75;;;0.20;;
69854;SDS011;57146;48.140;16.304;2022-08-20T12:22:49;1.80;;;0.25;;
69854;SDS011;57146;48.140;16.304;2022-08-20T12:25:16;1.77;;;0.10;;
69854;SDS011;57146;48.140;16.304;2022-08-20T12:27:44;2.97;;;0.43;;
69854;SDS011;57146;48.140;16.304;2022-08-20T12:30:18;2.47;;;0.20;;
69854;SDS011;57146;48.140;16.304;2022-08-20T12:32:48;2.40;;;0.13;;
69854;SDS011;57146;48.140;16.304;2022-08-20T12:35:16;2.05;;;0.30;;
69854;SDS011;57146;48.140;16.304;2022-08-20T12:37:44;2.00;;;0.32;;
69854;SDS011;57146;48.140;16.304;2022-08-20T12:40:16;3.17;;;0.40;;
69854;SDS011;57146;48.140;16.304;2022-08-20T12:42:58;2.47;;;0.40;;
69854;SDS011;57146;48.140;16.304;2022-08-20T12:45:29;1.95;;;0.30;;
69854;SDS011;57146;48.140;16.304;2022-08-20T12:48:05;2.22;;;0.45;;
69854;SDS011;57146;48.140;16.304;2022-08-20T12:50:34;2.30;;;0.40;;
69854;SDS011;57146;48.140;16.304;2022-08-20T12:53:02;2.38;;;0.30;;
69854;SDS011;57146;48.140;16.304;2022-08-20T12:55:30;2.53;;;0.30;;
69854;SDS011;57146;48.140;16.304;2022-08-20T12:57:58;1.70;;;0.28;;
69854;SDS011;57146;48.140;16.304;2022-08-20T13:00:33;2.30;;;0.40;;
69854;SDS011;57146;48.140;16.304;2022-08-20T13:03:03;2.40;;;0.20;;
69854;SDS011;57146;48.140;16.304;2022-08-20T13:05:32;2.20;;;0.35;;
69854;SDS011;57146;48.140;16.304;2022-08-20T13:08:00;3.10;;;0.20;;
69854;SDS011;57146;48.140;16.304;2022-08-20T13:10:31;1.52;;;0.20;;
69854;SDS011;57146;48.140;16.304;2022-08-20T13:13:00;2.95;;;0.47;;
69854;SDS011;57146;48.140;16.304;2022-08-20T13:15:27;2.20;;;0.40;;
69854;SDS011;57146;48.140;16.304;2022-08-20T13:17:56;2.33;;;0.30;;
69854;SDS011;57146;48.140;16.304;2022-08-20T13:20:25;1.40;;;0.10;;
69854;SDS011;57146;48.140;16.304;2022-08-20T13:23:00;1.52;;;0.10;;
69854;SDS011;57146;48.140;16.304;2022-08-20T13:25:28;2.17;;;0.30;;
69854;SDS011;57146;48.140;16.304;2022-08-20T13:27:56;1.70;;;0.10;;
69854;SDS011;57146;48.140;16.304;2022-08-20T13:30:25;1.42;;;0.10;;
69854;SDS011;57146;48.140;16.304;2022-08-20T13:32:52;1.83;;;0.10;;
69854;SDS011;57146;48.140;16.304;2022-08-20T13:35:20;2.03;;;0.10;;
69854;SDS011;57146;48.140;16.304;2022-08-20T13:37:47;1.50;;;0.15;;
69854;SDS011;57146;48.140;16.304;2022-08-20T13:40:16;1.38;;;0.10;;
69854;SDS011;57146;48.140;16.304;2022-08-20T13:42:43;2.70;;;0.13;;
69854;SDS011;57146;48.140;16.304;2022-08-20T13:45:10;2.10;;;0.10;;
69854;SDS011;57146;48.140;16.304;2022-08-20T13:47:39;2.30;;;0.20;;
69854;SDS011;57146;48.140;16.304;2022-08-20T13:50:17;1.33;;;0.10;;
69854;SDS011;57146;48.140;16.304;2022-08-20T13:52:46;2.20;;;0.10;;
69854;SDS011;57146;48.140;16.304;2022-08-20T13:55:18;1.50;;;0.10;;
69854;SDS011;57146;48.140;16.304;2022-08-20T13:57:46;2.47;;;0.30;;
69854;SDS011;57146;48.140;16.304;2022-08-20T14:00:16;1.95;;;0.20;;
69854;SDS011;57146;48.140;16.304;2022-08-20T14:02:51;1.38;;;0.10;;
69854;SDS011;57146;48.140;16.304;2022-08-20T14:05:18;1.88;;;0.20;;
69854;SDS011;57146;48.140;16.304;2022-08-20T14:07:46;1.50;;;0.20;;
69854;SDS011;57146;48.140;16.304;2022-08-20T14:10:16;1.50;;;0.30;;
69854;SDS011;57146;48.140;16.304;2022-08-20T14:12:48;2.03;;;0.30;;
69854;SDS011;57146;48.140;16.304;2022-08-20T14:15:15;1.70;;;0.30;;
69854;SDS011;57146;48.140;16.304;2022-08-20T14:17:50;2.38;;;0.40;;
69854;SDS011;57146;48.140;16.304;2022-08-20T14:20:20;2.38;;;0.60;;
69854;SDS011;57146;48.140;16.304;2022-08-20T14:22:54;1.83;;;0.50;;
69854;SDS011;57146;48.140;16.304;2022-08-20T14:25:22;3.25;;;0.52;;
69854;SDS011;57146;48.140;16.304;2022-08-20T14:27:50;2.10;;;0.60;;
69854;SDS011;57146;48.140;16.304;2022-08-20T14:30:20;2.80;;;0.55;;
69854;SDS011;57146;48.140;16.304;2022-08-20T14:32:50;3.22;;;0.60;;
69854;SDS011;57146;48.140;16.304;2022-08-20T14:35:17;2.27;;;0.50;;
69854;SDS011;57146;48.140;16.304;2022-08-20T14:37:46;10.13;;;0.80;;
69854;SDS011;57146;48.140;16.304;2022-08-20T14:40:15;3.53;;;0.80;;
69854;SDS011;57146;48.140;16.304;2022-08-20T14:42:43;2.50;;;0.45;;
69854;SDS011;57146;48.140;16.304;2022-08-20T14:45:17;2.95;;;0.90;;
69854;SDS011;57146;48.140;16.304;2022-08-20T14:47:46;2.10;;;0.40;;